Time;durP1;ratioP1;P1;durP2;ratioP2;P2;SDS_P1;SDS_P2;PMS_P1;PMS_P2;Temp;Humidity;BMP_temperature;BMP_pressure;BME280_temperature;BME280_humidity;BME280_pressure;Samples;Min_cycle;Max_cycle;Signal;HPM_P1;HPM_P2
2022/08/30 00:01:15;;;;;;;1.95;1.52;;;;;;;;;;5058157;28;20198;-93
2022/08/30 00:07:21;;;;;;;2.33;1.50;;;;;;;;;;4980760;28;20041;-92
2022/08/30 00:09:47;;;;;;;1.60;1.50;;;;;;;;;;5020556;28;20025;-93
2022/08/30 00:12:16;;;;;;;2.30;1.52;;;;;;;;;;5037814;28;20029;-94
2022/08/30 00:14:47;;;;;;;1.77;1.48;;;;;;;;;;5037440;28;20487;-93
2022/08/30 00:17:13;;;;;;;4.15;1.63;;;;;;;;;;5036171;28;20029;-93
2022/08/30 00:19:54;;;;;;;1.80;1.55;;;;;;;;;;5037450;28;20037;-93
2022/08/30 00:22:33;;;;;;;2.00;1.60;;;;;;;;;;5037861;28;20060;-93
2022/08/30 00:25:07;;;;;;;2.15;1.60;;;;;;;;;;5037469;28;20044;-93
2022/08/30 00:30:25;;;;;;;1.77;1.55;;;;;;;;;;5046866;28;20127;-92
2022/08/30 00:32:55;;;;;;;2.35;1.77;;;;;;;;;;5036653;28;20027;-93
2022/08/30 00:35:39;;;;;;;;;;;;;;;;;;;;;
2022/08/30 00:38:31;;;;;;;2.58;1.70;;;;;;;;;;5054887;28;20039;-94
2022/08/30 00:40:58;;;;;;;1.83;1.60;;;;;;;;;;5054264;28;20033;-94
2022/08/30 00:43:37;;;;;;;1.65;1.55;;;;;;;;;;5047274;28;20111;-93
2022/08/30 00:46:07;;;;;;;3.28;1.60;;;;;;;;;;5043025;28;20061;-93
2022/08/30 00:48:37;;;;;;;3.55;1.88;;;;;;;;;;5036919;28;20028;-92
2022/08/30 00:51:07;;;;;;;2.47;1.60;;;;;;;;;;5037136;28;20103;-94
2022/08/30 00:53:40;;;;;;;1.60;1.40;;;;;;;;;;5052646;28;20055;-93
2022/08/30 00:56:07;;;;;;;2.53;1.52;;;;;;;;;;5068595;28;20110;-93
2022/08/30 00:58:38;;;;;;;3.10;1.73;;;;;;;;;;5036636;28;20035;-93
2022/08/30 01:01:05;;;;;;;2.28;1.75;;;;;;;;;;5037052;28;20467;-93
2022/08/30 01:03:34;;;;;;;3.35;1.90;;;;;;;;;;5036820;28;20559;-93
2022/08/30 01:06:35;;;;;;;3.42;1.90;;;;;;;;;;5036838;28;20040;-94
2022/08/30 01:09:04;;;;;;;3.63;2.08;;;;;;;;;;5044029;28;20017;-93
2022/08/30 01:11:33;;;;;;;2.78;2.17;;;;;;;;;;5046596;28;20059;-93
2022/08/30 01:14:05;;;;;;;2.08;1.88;;;;;;;;;;5056856;28;20112;-93
2022/08/30 01:16:54;;;;;;;2.03;1.83;;;;;;;;;;5056557;28;20047;-93
2022/08/30 01:19:42;;;;;;;4.80;2.15;;;;;;;;;;5019527;28;20033;-93
2022/08/30 01:22:17;;;;;;;2.97;2.17;;;;;;;;;;5036477;28;20025;-92
2022/08/30 01:24:46;;;;;;;3.80;2.03;;;;;;;;;;5047580;28;20040;-91
2022/08/30 01:27:14;;;;;;;2.72;2.08;;;;;;;;;;5040272;28;20043;-92
2022/08/30 01:29:43;;;;;;;2.38;2.17;;;;;;;;;;5033800;28;20085;-92
2022/08/30 01:32:22;;;;;;;4.47;1.92;;;;;;;;;;5026414;28;20080;-92
2022/08/30 01:34:48;;;;;;;3.20;1.98;;;;;;;;;;5021609;28;20034;-92
2022/08/30 01:37:21;;;;;;;2.30;1.85;;;;;;;;;;5020855;28;20087;-92
2022/08/30 01:39:47;;;;;;;2.95;1.95;;;;;;;;;;4998294;28;20116;-90
2022/08/30 01:42:17;;;;;;;2.50;1.90;;;;;;;;;;5014695;28;20026;-92
2022/08/30 01:45:03;;;;;;;1.75;1.60;;;;;;;;;;5030465;28;20030;-92
2022/08/30 01:47:56;;;;;;;3.45;2.00;;;;;;;;;;5017210;28;20045;-93
2022/08/30 01:50:25;;;;;;;2.72;1.88;;;;;;;;;;5017197;28;20542;-93
2022/08/30 01:53:04;;;;;;;3.10;1.95;;;;;;;;;;5017369;28;20022;-93
2022/08/30 01:55:35;;;;;;;2.38;1.98;;;;;;;;;;5017384;28;20018;-94
2022/08/30 01:58:03;;;;;;;3.88;1.75;;;;;;;;;;5017014;28;20102;-94
2022/08/30 02:01:03;;;;;;;2.47;2.20;;;;;;;;;;5017477;28;20510;-93
2022/08/30 02:03:36;;;;;;;4.22;2.35;;;;;;;;;;5013548;28;20488;-93
2022/08/30 02:06:06;;;;;;;2.28;1.80;;;;;;;;;;5016593;28;20022;-93
2022/08/30 02:08:32;;;;;;;3.67;1.80;;;;;;;;;;5016787;28;20022;-93
2022/08/30 02:11:02;;;;;;;3.17;2.10;;;;;;;;;;5017282;28;20028;-93
2022/08/30 02:16:16;;;;;;;5.78;2.10;;;;;;;;;;5018240;28;20415;-93
2022/08/30 02:18:45;;;;;;;1.90;1.80;;;;;;;;;;5016800;28;20022;-93
2022/08/30 02:21:32;;;;;;;;;;;;;;;;;;;;;
2022/08/30 02:24:06;;;;;;;3.05;1.85;;;;;;;;;;5010378;28;20032;-93
2022/08/30 02:26:35;;;;;;;2.08;1.70;;;;;;;;;;5016839;28;20546;-93
2022/08/30 02:29:05;;;;;;;3.78;1.88;;;;;;;;;;5019824;28;20048;-93
2022/08/30 02:31:35;;;;;;;2.67;1.85;;;;;;;;;;5036076;28;20018;-93
2022/08/30 02:34:17;;;;;;;2.25;1.70;;;;;;;;;;5027957;28;20033;-93
2022/08/30 02:36:46;;;;;;;2.83;1.80;;;;;;;;;;5019345;28;20128;-93
2022/08/30 02:39:14;;;;;;;2.17;1.60;;;;;;;;;;5052839;28;20025;-93
2022/08/30 02:41:41;;;;;;;2.63;1.90;;;;;;;;;;5052383;28;20116;-92
2022/08/30 02:44:08;;;;;;;3.30;1.90;;;;;;;;;;5043236;28;20052;-92
2022/08/30 02:46:37;;;;;;;2.00;1.80;;;;;;;;;;5056139;28;20030;-93
2022/08/30 02:49:04;;;;;;;2.92;1.70;;;;;;;;;;5042875;28;20109;-93
2022/08/30 02:51:38;;;;;;;2.30;2.03;;;;;;;;;;5036314;28;20060;-93
2022/08/30 02:54:04;;;;;;;1.92;1.65;;;;;;;;;;5035608;28;20048;-93
2022/08/30 02:56:33;;;;;;;3.28;1.70;;;;;;;;;;5035620;28;20033;-91
2022/08/30 02:59:01;;;;;;;2.50;2.28;;;;;;;;;;5052197;28;20026;-92
2022/08/30 03:01:47;;;;;;;2.88;2.00;;;;;;;;;;5051918;28;20054;-92
2022/08/30 03:07:27;;;;;;;2.35;2.00;;;;;;;;;;5036636;28;20052;-92
2022/08/30 03:09:54;;;;;;;2.58;1.95;;;;;;;;;;5052191;28;20025;-93
2022/08/30 03:12:27;;;;;;;3.15;2.15;;;;;;;;;;5052068;28;20383;-93
2022/08/30 03:14:54;;;;;;;5.90;2.17;;;;;;;;;;5051835;28;20136;-93
2022/08/30 03:17:24;;;;;;;2.65;1.98;;;;;;;;;;5035345;28;20116;-94
2022/08/30 03:19:53;;;;;;;3.97;2.13;;;;;;;;;;5035347;28;20035;-93
2022/08/30 03:22:24;;;;;;;3.50;2.17;;;;;;;;;;5035121;28;20361;-94
2022/08/30 03:24:58;;;;;;;3.13;2.33;;;;;;;;;;5051501;28;20025;-94
2022/08/30 03:27:27;;;;;;;3.10;1.95;;;;;;;;;;5048834;28;20497;-93
2022/08/30 03:29:56;;;;;;;2.40;1.85;;;;;;;;;;5041584;28;20033;-93
2022/08/30 03:32:25;;;;;;;2.65;2.30;;;;;;;;;;5015144;28;20030;-92
2022/08/30 03:34:54;;;;;;;3.20;2.33;;;;;;;;;;5015280;28;20022;-92
2022/08/30 03:37:48;;;;;;;2.88;2.00;;;;;;;;;;5015652;28;20048;-93
2022/08/30 03:40:15;;;;;;;4.22;1.80;;;;;;;;;;5015598;28;20033;-93
2022/08/30 03:42:44;;;;;;;3.00;2.20;;;;;;;;;;5014934;28;20499;-93
2022/08/30 03:45:14;;;;;;;2.20;1.92;;;;;;;;;;5015053;28;20475;-93
2022/08/30 03:47:48;;;;;;;3.25;2.17;;;;;;;;;;5014717;28;20401;-92
2022/08/30 03:50:15;;;;;;;2.80;2.10;;;;;;;;;;5015574;28;20117;-93
2022/08/30 03:52:44;;;;;;;2.95;2.05;;;;;;;;;;5014882;28;20029;-93
2022/08/30 03:55:18;;;;;;;2.63;1.90;;;;;;;;;;5014792;28;20052;-93
2022/08/30 03:57:47;;;;;;;4.55;2.05;;;;;;;;;;5014521;28;20080;-93
2022/08/30 04:00:46;;;;;;;2.15;1.95;;;;;;;;;;5014442;28;20399;-92
2022/08/30 04:03:15;;;;;;;2.72;2.20;;;;;;;;;;5015075;28;20033;-93
2022/08/30 04:05:51;;;;;;;2.65;2.13;;;;;;;;;;5014543;28;20030;-92
2022/08/30 04:08:17;;;;;;;2.67;1.90;;;;;;;;;;5013829;28;20111;-92
2022/08/30 04:10:43;;;;;;;2.78;2.22;;;;;;;;;;5013753;28;20018;-92
2022/08/30 04:13:09;;;;;;;2.60;2.30;;;;;;;;;;5014222;28;20469;-91
2022/08/30 04:15:59;;;;;;;;;;;;;;;;;;;;;
2022/08/30 04:18:25;;;;;;;2.60;2.00;;;;;;;;;;5015192;28;20033;-93
2022/08/30 04:21:17;;;;;;;2.78;2.10;;;;;;;;;;5014205;28;20025;-92
2022/08/30 04:23:43;;;;;;;2.63;1.90;;;;;;;;;;5019032;28;20029;-92
2022/08/30 04:26:12;;;;;;;3.85;2.00;;;;;;;;;;5013347;28;20316;-92
2022/08/30 04:28:47;;;;;;;3.40;2.28;;;;;;;;;;5014222;28;20029;-92
2022/08/30 04:31:14;;;;;;;2.58;2.08;;;;;;;;;;5036439;28;20044;-92
2022/08/30 04:33:43;;;;;;;3.15;2.40;;;;;;;;;;5045214;28;20497;-93
2022/08/30 04:45:23;;;;;;;6.13;2.10;;;;;;;;;;5055288;28;20111;-91
2022/08/30 04:47:52;;;;;;;2.08;1.88;;;;;;;;;;5035152;28;20073;-91
2022/08/30 04:50:19;;;;;;;2.60;2.00;;;;;;;;;;5036072;28;20028;-91
2022/08/30 04:52:46;;;;;;;4.20;2.25;;;;;;;;;;5040811;28;20040;-91
2022/08/30 04:55:13;;;;;;;3.50;2.50;;;;;;;;;;5038975;28;20032;-91
2022/08/30 04:57:42;;;;;;;2.58;2.10;;;;;;;;;;5037991;28;20482;-91
2022/08/30 05:00:10;;;;;;;3.72;2.17;;;;;;;;;;5043346;28;20081;-91
2022/08/30 05:02:37;;;;;;;2.97;2.08;;;;;;;;;;5040888;28;20046;-91
2022/08/30 05:07:51;;;;;;;2.47;2.00;;;;;;;;;;5052935;28;20109;-91
2022/08/30 05:10:17;;;;;;;2.85;2.63;;;;;;;;;;5035445;28;20478;-91
2022/08/30 05:12:43;;;;;;;2.92;2.63;;;;;;;;;;5043294;28;20024;-90
2022/08/30 05:15:17;;;;;;;25.65;17.35;;;;;;;;;;5044078;28;20049;-91
2022/08/30 05:17:46;;;;;;;53.25;35.63;;;;;;;;;;5046960;28;20024;-92
2022/08/30 05:20:12;;;;;;;58.53;39.47;;;;;;;;;;5037920;28;20021;-91
2022/08/30 05:22:48;;;;;;;68.55;45.53;;;;;;;;;;5035744;28;20025;-91
2022/08/30 05:25:15;;;;;;;104.22;70.18;;;;;;;;;;5035065;28;20540;-91
2022/08/30 05:27:41;;;;;;;145.65;100.28;;;;;;;;;;5040013;28;20482;-92
2022/08/30 05:30:08;;;;;;;109.97;75.53;;;;;;;;;;5039916;28;20060;-91
2022/08/30 05:32:34;;;;;;;63.63;43.22;;;;;;;;;;5043639;28;20021;-91
2022/08/30 05:35:00;;;;;;;70.20;47.95;;;;;;;;;;5038888;28;20364;-92
2022/08/30 05:37:26;;;;;;;59.20;38.45;;;;;;;;;;5052573;28;20486;-92
2022/08/30 05:39:56;;;;;;;60.40;41.65;;;;;;;;;;5044900;28;20093;-92
2022/08/30 05:42:25;;;;;;;54.42;37.85;;;;;;;;;;5044163;28;20390;-92
2022/08/30 05:44:54;;;;;;;37.40;26.73;;;;;;;;;;5044663;28;20053;-92
2022/08/30 05:47:23;;;;;;;35.10;22.40;;;;;;;;;;5044163;28;20111;-92
2022/08/30 05:49:54;;;;;;;19.48;12.00;;;;;;;;;;5042734;28;20039;-92
2022/08/30 05:52:23;;;;;;;19.38;12.52;;;;;;;;;;5044774;28;20483;-92
2022/08/30 05:55:06;;;;;;;16.65;11.23;;;;;;;;;;5047095;28;20475;-92
2022/08/30 05:57:36;;;;;;;12.60;5.53;;;;;;;;;;5026672;28;20116;-92
2022/08/30 06:00:06;;;;;;;7.63;5.18;;;;;;;;;;5038139;28;20475;-92
2022/08/30 06:02:35;;;;;;;9.15;5.53;;;;;;;;;;5033286;28;20137;-93
2022/08/30 06:05:04;;;;;;;11.23;5.13;;;;;;;;;;5050739;28;20039;-93
2022/08/30 06:10:35;;;;;;;6.68;4.03;;;;;;;;;;4993159;28;20448;-93
2022/08/30 06:13:18;;;;;;;6.63;4.35;;;;;;;;;;5030881;28;20041;-93
2022/08/30 06:15:47;;;;;;;9.30;4.57;;;;;;;;;;5047466;28;20029;-93
2022/08/30 06:18:15;;;;;;;5.63;3.50;;;;;;;;;;5049273;28;20025;-94
2022/08/30 06:20:50;;;;;;;3.17;2.33;;;;;;;;;;5049891;28;20030;-94
2022/08/30 06:26:25;;;;;;;4.82;2.83;;;;;;;;;;5034130;28;20063;-93
2022/08/30 06:28:51;;;;;;;;;;;;;;;;;;5035356;28;20112;-94
2022/08/30 06:31:28;;;;;;;2.20;2.00;;;;;;;;;;5038568;28;20358;-93
2022/08/30 06:33:54;;;;;;;2.97;2.10;;;;;;;;;;5039646;28;20453;-93
2022/08/30 06:36:35;;;;;;;2.63;2.03;;;;;;;;;;5041139;28;20462;-94
2022/08/30 06:41:56;;;;;;;3.30;2.25;;;;;;;;;;5046547;28;20025;-93
2022/08/30 06:44:25;;;;;;;2.15;1.88;;;;;;;;;;5058788;28;20021;-94
2022/08/30 06:46:53;;;;;;;2.97;2.03;;;;;;;;;;5076745;28;20031;-93
2022/08/30 06:49:27;;;;;;;2.53;2.00;;;;;;;;;;5076148;28;20474;-93
2022/08/30 06:51:55;;;;;;;2.33;1.70;;;;;;;;;;5069362;28;20021;-93
2022/08/30 06:57:26;;;;;;;2.63;1.83;;;;;;;;;;5009885;28;20078;-94
2022/08/30 06:59:56;;;;;;;2.63;1.70;;;;;;;;;;5043929;28;20021;-93
2022/08/30 07:02:25;;;;;;;2.95;1.80;;;;;;;;;;5039345;28;20494;-93
2022/08/30 07:04:54;;;;;;;2.70;2.10;;;;;;;;;;5039269;28;20021;-93
2022/08/30 07:07:20;;;;;;;4.38;1.73;;;;;;;;;;5039052;28;20391;-94
2022/08/30 07:09:52;;;;;;;2.58;1.98;;;;;;;;;;5036177;28;20117;-93
2022/08/30 07:12:24;;;;;;;2.13;1.70;;;;;;;;;;5039138;28;20059;-93
2022/08/30 07:14:57;;;;;;;2.35;1.77;;;;;;;;;;5039174;28;20013;-93
2022/08/30 07:20:15;;;;;;;2.67;1.90;;;;;;;;;;5076618;28;20059;-93
2022/08/30 07:22:43;;;;;;;2.30;1.77;;;;;;;;;;5058607;28;20029;-93
2022/08/30 07:25:27;;;;;;;3.53;1.75;;;;;;;;;;5058487;28;20024;-93
2022/08/30 07:27:56;;;;;;;3.65;1.83;;;;;;;;;;5045930;28;20032;-93
2022/08/30 07:30:25;;;;;;;2.28;2.08;;;;;;;;;;5034975;28;20041;-93
2022/08/30 07:33:07;;;;;;;3.17;1.88;;;;;;;;;;5045866;28;20068;-93
2022/08/30 07:35:44;;;;;;;1.88;1.70;;;;;;;;;;5051755;28;20112;-93
2022/08/30 07:38:17;;;;;;;2.80;1.85;;;;;;;;;;5046602;28;20403;-93
2022/08/30 07:40:46;;;;;;;2.72;2.08;;;;;;;;;;5025105;28;20026;-93
2022/08/30 07:43:15;;;;;;;2.53;1.95;;;;;;;;;;5051569;28;20083;-93
2022/08/30 07:45:41;;;;;;;3.08;1.92;;;;;;;;;;5051600;28;20029;-92
2022/08/30 07:48:10;;;;;;;5.63;2.17;;;;;;;;;;5050021;28;20483;-93
2022/08/30 07:50:45;;;;;;;2.08;1.75;;;;;;;;;;5018465;28;20017;-93
2022/08/30 07:53:28;;;;;;;2.47;2.28;;;;;;;;;;5048379;28;20021;-93
2022/08/30 07:55:54;;;;;;;3.67;2.08;;;;;;;;;;5041911;28;20018;-93
2022/08/30 08:01:35;;;;;;;3.65;2.22;;;;;;;;;;5031793;28;20040;-92
2022/08/30 08:04:18;;;;;;;2.53;1.88;;;;;;;;;;5038778;28;20056;-93
2022/08/30 08:06:44;;;;;;;3.40;2.05;;;;;;;;;;5035979;28;20112;-92
2022/08/30 08:09:14;;;;;;;2.70;1.77;;;;;;;;;;5027162;28;20084;-93
2022/08/30 08:11:42;;;;;;;4.10;2.08;;;;;;;;;;5017861;28;20018;-92
2022/08/30 08:14:11;;;;;;;3.35;2.25;;;;;;;;;;5042652;28;20017;-92
2022/08/30 08:16:38;;;;;;;3.15;2.15;;;;;;;;;;5050869;28;20499;-92
2022/08/30 08:19:07;;;;;;;2.83;2.10;;;;;;;;;;5035883;28;20105;-92
2022/08/30 08:21:35;;;;;;;2.67;1.90;;;;;;;;;;5024682;28;20045;-93
2022/08/30 08:24:17;;;;;;;2.63;2.15;;;;;;;;;;5050687;28;20028;-92
2022/08/30 08:26:46;;;;;;;2.13;1.92;;;;;;;;;;5050453;28;20025;-92
2022/08/30 08:29:15;;;;;;;2.20;1.88;;;;;;;;;;5022080;28;20050;-93
2022/08/30 08:31:48;;;;;;;3.95;2.05;;;;;;;;;;4997020;28;20034;-92
2022/08/30 08:34:18;;;;;;;3.38;2.17;;;;;;;;;;5014113;28;20026;-93
2022/08/30 08:36:44;;;;;;;2.83;1.90;;;;;;;;;;5013590;28;20029;-92
2022/08/30 08:39:19;;;;;;;2.53;1.88;;;;;;;;;;5013606;28;20033;-93
2022/08/30 08:41:58;;;;;;;2.38;2.00;;;;;;;;;;5013780;28;20029;-92
2022/08/30 08:44:43;;;;;;;5.43;1.90;;;;;;;;;;5013818;28;20022;-92
2022/08/30 08:47:14;;;;;;;3.05;1.80;;;;;;;;;;5013815;28;20026;-92
2022/08/30 08:49:45;;;;;;;2.22;2.03;;;;;;;;;;5013248;28;20109;-93
2022/08/30 08:55:23;;;;;;;1.83;1.60;;;;;;;;;;5014073;28;20053;-92
2022/08/30 08:57:51;;;;;;;3.63;1.95;;;;;;;;;;5013721;28;20022;-93
2022/08/30 09:00:17;;;;;;;3.35;1.80;;;;;;;;;;5013780;28;20060;-93
2022/08/30 09:02:48;;;;;;;4.18;2.03;;;;;;;;;;5012983;28;20042;-92
2022/08/30 09:05:27;;;;;;;4.93;1.93;;;;;;;;;;5013463;28;20053;-92
2022/08/30 09:08:04;;;;;;;2.42;2.00;;;;;;;;;;5013384;28;20032;-92
2022/08/30 09:10:33;;;;;;;2.60;1.80;;;;;;;;;;5013219;28;20026;-93
2022/08/30 09:13:02;;;;;;;3.85;2.42;;;;;;;;;;5013504;28;20022;-92
2022/08/30 09:15:30;;;;;;;3.13;2.00;;;;;;;;;;5013223;28;20030;-92
2022/08/30 09:17:58;;;;;;;2.40;2.00;;;;;;;;;;5013637;28;20026;-92
2022/08/30 09:20:34;;;;;;;3.13;2.00;;;;;;;;;;5012806;28;20557;-92
2022/08/30 09:23:26;;;;;;;3.53;2.05;;;;;;;;;;5021429;28;20029;-92
2022/08/30 09:25:55;;;;;;;3.67;1.83;;;;;;;;;;4998789;28;20394;-92
2022/08/30 09:28:26;;;;;;;2.45;2.05;;;;;;;;;;5012660;28;20030;-93
2022/08/30 09:31:18;;;;;;;6.45;4.20;;;;;;;;;;5043474;28;20444;-93
2022/08/30 09:34:04;;;;;;;6.82;4.40;;;;;;;;;;5058143;28;20985;-93
2022/08/30 09:36:48;;;;;;;5.63;3.53;;;;;;;;;;5036439;28;20025;-92
2022/08/30 09:42:27;;;;;;;7.95;3.95;;;;;;;;;;5050035;28;20094;-92
2022/08/30 09:45:09;;;;;;;2.90;2.60;;;;;;;;;;5039471;28;20047;-92
2022/08/30 09:47:37;;;;;;;5.25;2.47;;;;;;;;;;5062060;28;20029;-92
2022/08/30 09:50:08;;;;;;;2.25;1.90;;;;;;;;;;5035767;28;20060;-92
2022/08/30 09:52:47;;;;;;;3.58;2.63;;;;;;;;;;5036371;28;20025;-92
2022/08/30 09:55:32;;;;;;;5.55;2.47;;;;;;;;;;5041617;28;20024;-94
2022/08/30 09:58:15;;;;;;;2.50;2.15;;;;;;;;;;5036265;28;20032;-93
2022/08/30 10:01:11;;;;;;;3.10;1.90;;;;;;;;;;5036460;28;20021;-92
2022/08/30 10:03:47;;;;;;;2.72;2.20;;;;;;;;;;5034235;28;20049;-92
2022/08/30 10:06:22;;;;;;;4.15;2.63;;;;;;;;;;5038423;28;20036;-93
2022/08/30 10:09:01;;;;;;;6.13;2.15;;;;;;;;;;5058826;28;20028;-92
2022/08/30 10:11:47;;;;;;;2.97;1.98;;;;;;;;;;5048453;28;20108;-93
2022/08/30 10:14:27;;;;;;;4.43;2.60;;;;;;;;;;5019128;28;20037;-93
2022/08/30 10:17:01;;;;;;;5.35;2.40;;;;;;;;;;5049968;28;20612;-92
2022/08/30 10:19:46;;;;;;;4.18;2.40;;;;;;;;;;5039359;28;20070;-93
2022/08/30 10:22:26;;;;;;;2.78;2.17;;;;;;;;;;5038401;28;20021;-92
2022/08/30 10:25:04;;;;;;;3.38;2.15;;;;;;;;;;5047816;28;20559;-91
2022/08/30 10:27:34;;;;;;;4.60;2.20;;;;;;;;;;5040814;28;20402;-92
2022/08/30 10:33:31;;;;;;;;;;;;;;;;;;;;;
2022/08/30 10:35:57;;;;;;;4.85;2.22;;;;;;;;;;5015763;28;20030;-93
2022/08/30 10:38:29;;;;;;;4.32;2.10;;;;;;;;;;5049022;28;20017;-92
2022/08/30 10:41:13;;;;;;;2.50;1.90;;;;;;;;;;5026486;28;20076;-92
2022/08/30 10:43:46;;;;;;;3.33;2.05;;;;;;;;;;5013359;28;20030;-92
2022/08/30 10:46:33;;;;;;;2.47;2.00;;;;;;;;;;5052718;28;20580;-92
2022/08/30 10:49:04;;;;;;;4.32;2.30;;;;;;;;;;5047235;28;20050;-92
2022/08/30 10:51:38;;;;;;;4.07;1.90;;;;;;;;;;5031877;28;20033;-92
2022/08/30 10:54:15;;;;;;;4.50;2.28;;;;;;;;;;5047945;28;20026;-92
2022/08/30 10:56:51;;;;;;;2.65;2.15;;;;;;;;;;5036940;28;20120;-92
2022/08/30 11:02:36;;;;;;;3.55;1.95;;;;;;;;;;5019225;28;20034;-92
2022/08/30 11:05:02;;;;;;;2.28;2.08;;;;;;;;;;5015964;28;20029;-93
2022/08/30 11:07:31;;;;;;;2.25;1.88;;;;;;;;;;5015667;28;20058;-93
2022/08/30 11:10:16;;;;;;;3.85;2.20;;;;;;;;;;5033170;28;20032;-92
2022/08/30 11:12:54;;;;;;;4.47;1.90;;;;;;;;;;5011221;28;20083;-93
2022/08/30 11:15:25;;;;;;;3.20;2.55;;;;;;;;;;5050916;28;20021;-92
2022/08/30 11:18:18;;;;;;;2.90;2.00;;;;;;;;;;5031870;28;20030;-93
2022/08/30 11:20:55;;;;;;;3.45;2.40;;;;;;;;;;5033863;28;20025;-93
2022/08/30 11:23:34;;;;;;;3.15;2.42;;;;;;;;;;5052636;28;20036;-93
2022/08/30 11:26:08;;;;;;;4.53;2.50;;;;;;;;;;5052004;28;20083;-93
2022/08/30 11:29:15;;;;;;;4.03;2.38;;;;;;;;;;5052111;28;20033;-93
2022/08/30 11:32:14;;;;;;;2.17;1.90;;;;;;;;;;5016164;28;20046;-92
2022/08/30 11:34:47;;;;;;;3.58;2.42;;;;;;;;;;5018386;28;20026;-92
2022/08/30 11:37:16;;;;;;;3.33;2.65;;;;;;;;;;5035454;28;20029;-93
2022/08/30 11:43:23;;;;;;;4.57;2.55;;;;;;;;;;5003934;28;20118;-92
2022/08/30 11:45:54;;;;;;;3.92;2.45;;;;;;;;;;4994660;28;20041;-93
2022/08/30 11:48:43;;;;;;;3.88;3.05;;;;;;;;;;5015051;28;20132;-92
2022/08/30 11:51:25;;;;;;;4.57;3.28;;;;;;;;;;5015059;28;20075;-93
2022/08/30 11:54:12;;;;;;;3.63;2.47;;;;;;;;;;5014753;28;20050;-93
2022/08/30 11:56:56;;;;;;;3.38;2.28;;;;;;;;;;5014245;28;20068;-93
2022/08/30 11:59:31;;;;;;;3.10;2.20;;;;;;;;;;4999702;28;20022;-93
2022/08/30 12:01:58;;;;;;;2.80;2.20;;;;;;;;;;5014908;28;20538;-92
2022/08/30 12:04:35;;;;;;;2.40;2.10;;;;;;;;;;5023908;28;20116;-93
2022/08/30 12:07:08;;;;;;;2.65;2.40;;;;;;;;;;5014658;28;20036;-93
2022/08/30 12:09:34;;;;;;;3.60;2.45;;;;;;;;;;5014719;28;20431;-93
2022/08/30 12:12:17;;;;;;;2.92;2.30;;;;;;;;;;5002475;28;20022;-92
2022/08/30 12:14:50;;;;;;;3.97;2.40;;;;;;;;;;5011519;28;20049;-92
2022/08/30 12:20:38;;;;;;;4.40;1.98;;;;;;;;;;5010974;28;20499;-92
2022/08/30 12:23:25;;;;;;;3.90;2.63;;;;;;;;;;5024874;28;20044;-93
2022/08/30 12:26:08;;;;;;;3.30;2.20;;;;;;;;;;5017346;28;20096;-92
2022/08/30 12:28:34;;;;;;;2.30;1.83;;;;;;;;;;5013518;28;20053;-93
2022/08/30 12:31:18;;;;;;;2.88;2.22;;;;;;;;;;5015362;28;20105;-94
2022/08/30 12:33:46;;;;;;;3.25;1.92;;;;;;;;;;5014416;28;20049;-92
2022/08/30 12:36:33;;;;;;;3.05;2.40;;;;;;;;;;5014129;28;20080;-93
2022/08/30 12:39:07;;;;;;;2.38;2.17;;;;;;;;;;5013841;28;20080;-93
2022/08/30 12:41:36;;;;;;;3.65;2.60;;;;;;;;;;5014557;28;20033;-93
2022/08/30 12:44:02;;;;;;;2.65;2.20;;;;;;;;;;5014089;28;20386;-93
2022/08/30 12:46:29;;;;;;;3.45;2.42;;;;;;;;;;5014497;28;20025;-92
2022/08/30 12:48:55;;;;;;;2.80;2.40;;;;;;;;;;5013583;28;20022;-93
2022/08/30 12:51:41;;;;;;;4.13;2.25;;;;;;;;;;5013967;28;20056;-92
2022/08/30 12:54:15;;;;;;;4.20;2.63;;;;;;;;;;5013721;28;20079;-92
2022/08/30 12:57:06;;;;;;;3.75;2.60;;;;;;;;;;5013835;28;20487;-93
2022/08/30 12:59:47;;;;;;;3.67;2.63;;;;;;;;;;5014062;28;20061;-92
2022/08/30 13:02:30;;;;;;;;;;;;;;;;;;;;;
2022/08/30 13:04:57;;;;;;;4.65;2.65;;;;;;;;;;5014851;28;20014;-92
2022/08/30 13:07:28;;;;;;;3.17;2.55;;;;;;;;;;5013819;28;20468;-92
2022/08/30 13:09:54;;;;;;;;;;;;;;;;;;5000190;28;20030;-93
2022/08/30 13:12:37;;;;;;;2.35;2.15;;;;;;;;;;5000118;28;19905;-93
2022/08/30 13:15:18;;;;;;;5.03;2.78;;;;;;;;;;5013902;28;20018;-93
2022/08/30 13:17:47;;;;;;;3.05;2.28;;;;;;;;;;5014475;28;20094;-92
2022/08/30 13:20:25;;;;;;;5.95;2.90;;;;;;;;;;5013759;28;20064;-94
2022/08/30 13:23:00;;;;;;;2.92;2.30;;;;;;;;;;5014131;28;20033;-93
2022/08/30 13:25:27;;;;;;;2.33;2.10;;;;;;;;;;5014469;28;20563;-93
2022/08/30 13:27:56;;;;;;;3.15;2.33;;;;;;;;;;5013992;28;20022;-93
2022/08/30 13:30:25;;;;;;;2.72;2.42;;;;;;;;;;5025365;28;20495;-92
2022/08/30 13:33:01;;;;;;;5.00;2.40;;;;;;;;;;5050149;28;20030;-93
2022/08/30 13:38:45;;;;;;;4.43;2.80;;;;;;;;;;4995333;28;20080;-93
2022/08/30 13:41:24;;;;;;;;;;;;;;;;;;;;;
2022/08/30 13:43:57;;;;;;;3.15;2.28;;;;;;;;;;5025158;28;20036;-92
2022/08/30 13:46:26;;;;;;;3.30;2.35;;;;;;;;;;5053900;28;20025;-93
2022/08/30 13:48:56;;;;;;;3.40;2.10;;;;;;;;;;5038126;28;20026;-92
2022/08/30 13:51:43;;;;;;;2.33;2.10;;;;;;;;;;5020144;28;20022;-92
2022/08/30 13:54:21;;;;;;;;;;;;;;;;;;;;;
2022/08/30 13:56:54;;;;;;;2.65;2.28;;;;;;;;;;5032580;28;20024;-93
2022/08/30 13:59:32;;;;;;;3.38;2.00;;;;;;;;;;5034315;28;20095;-93
2022/08/30 14:02:01;;;;;;;3.80;2.17;;;;;;;;;;5030003;28;20029;-92
2022/08/30 14:04:28;;;;;;;4.75;2.20;;;;;;;;;;5017150;28;20026;-92
2022/08/30 14:06:56;;;;;;;3.33;2.17;;;;;;;;;;5031909;28;20021;-93
2022/08/30 14:09:22;;;;;;;3.10;2.30;;;;;;;;;;5051905;28;20037;-92
2022/08/30 14:11:56;;;;;;;4.28;2.63;;;;;;;;;;5038191;28;20018;-92
2022/08/30 14:14:25;;;;;;;4.38;2.22;;;;;;;;;;5017260;28;20026;-95
2022/08/30 14:16:58;;;;;;;4.50;2.80;;;;;;;;;;5017184;28;20088;-92
2022/08/30 14:19:25;;;;;;;6.05;2.63;;;;;;;;;;5027703;28;20423;-93
2022/08/30 14:21:58;;;;;;;3.20;2.00;;;;;;;;;;5051028;28;20036;-92
2022/08/30 14:24:28;;;;;;;4.93;2.47;;;;;;;;;;5032717;28;20419;-93
2022/08/30 14:26:56;;;;;;;6.10;2.58;;;;;;;;;;5032525;28;20014;-93
2022/08/30 14:29:28;;;;;;;3.67;2.42;;;;;;;;;;5006585;28;20049;-93
2022/08/30 14:31:55;;;;;;;7.03;2.88;;;;;;;;;;5038925;28;20021;-92
2022/08/30 14:34:24;;;;;;;2.88;2.30;;;;;;;;;;5038708;28;20036;-92
2022/08/30 14:36:55;;;;;;;2.50;2.30;;;;;;;;;;5039059;28;20104;-93
2022/08/30 14:39:36;;;;;;;2.75;2.33;;;;;;;;;;5049832;28;20020;-92
2022/08/30 14:42:29;;;;;;;3.95;2.30;;;;;;;;;;5019598;28;20494;-91
2022/08/30 14:44:55;;;;;;;3.33;2.30;;;;;;;;;;5052783;28;20543;-92
2022/08/30 14:47:28;;;;;;;3.00;1.85;;;;;;;;;;5059195;28;20081;-92
2022/08/30 14:49:57;;;;;;;3.25;2.40;;;;;;;;;;5059004;28;20032;-93
2022/08/30 14:52:26;;;;;;;3.60;2.25;;;;;;;;;;5056604;28;20021;-92
2022/08/30 14:54:55;;;;;;;2.90;2.20;;;;;;;;;;5038984;28;20017;-92
2022/08/30 14:57:24;;;;;;;4.03;2.40;;;;;;;;;;5046172;28;20040;-92
2022/08/30 14:59:58;;;;;;;4.05;2.40;;;;;;;;;;5052894;28;20051;-92
2022/08/30 15:02:44;;;;;;;3.38;2.85;;;;;;;;;;5039476;28;20029;-92
2022/08/30 15:05:18;;;;;;;4.82;2.38;;;;;;;;;;5048001;28;20028;-93
2022/08/30 15:07:49;;;;;;;5.18;3.08;;;;;;;;;;5031775;28;20029;-92
2022/08/30 15:10:17;;;;;;;4.27;3.33;;;;;;;;;;5038945;28;20379;-92
2022/08/30 15:12:45;;;;;;;3.22;2.83;;;;;;;;;;5038392;28;20120;-93
2022/08/30 15:15:35;;;;;;;3.70;2.60;;;;;;;;;;5054948;28;20024;-92
2022/08/30 15:18:08;;;;;;;2.30;2.10;;;;;;;;;;5032620;28;20129;-92
2022/08/30 15:20:35;;;;;;;3.50;2.50;;;;;;;;;;5030123;28;20094;-92
2022/08/30 15:23:04;;;;;;;3.40;2.80;;;;;;;;;;5038174;28;20029;-93
2022/08/30 15:25:37;;;;;;;3.33;2.70;;;;;;;;;;5040610;28;20025;-93
2022/08/30 15:28:06;;;;;;;4.03;2.63;;;;;;;;;;5038504;28;20557;-92
2022/08/30 15:30:34;;;;;;;3.95;2.45;;;;;;;;;;5037976;28;20525;-93
2022/08/30 15:33:01;;;;;;;2.78;2.35;;;;;;;;;;5038026;28;20020;-92
2022/08/30 15:38:35;;;;;;;4.30;2.45;;;;;;;;;;4994837;28;20026;-92
2022/08/30 15:41:07;;;;;;;3.55;2.38;;;;;;;;;;5031171;28;20049;-92
2022/08/30 15:43:33;;;;;;;;;;;;;;;;;;5038318;28;20025;-92
2022/08/30 15:46:18;;;;;;;3.28;2.33;;;;;;;;;;5049587;28;19911;-92
2022/08/30 15:48:46;;;;;;;2.92;2.10;;;;;;;;;;5037764;28;20023;-91
2022/08/30 15:51:16;;;;;;;3.58;2.13;;;;;;;;;;5045691;28;20024;-92
2022/08/30 15:53:45;;;;;;;3.13;2.28;;;;;;;;;;5037729;28;20035;-91
2022/08/30 15:56:26;;;;;;;2.92;2.17;;;;;;;;;;5037151;28;20091;-92
2022/08/30 15:58:55;;;;;;;3.20;2.40;;;;;;;;;;5052274;28;20646;-91
2022/08/30 16:01:21;;;;;;;2.55;2.22;;;;;;;;;;5048522;28;20124;-91
2022/08/30 16:03:48;;;;;;;3.42;2.63;;;;;;;;;;5036948;28;20395;-92
2022/08/30 16:06:15;;;;;;;3.50;2.63;;;;;;;;;;5041211;28;20021;-92
2022/08/30 16:08:42;;;;;;;4.15;2.50;;;;;;;;;;5039586;28;20374;-92
2022/08/30 16:11:09;;;;;;;2.42;2.20;;;;;;;;;;5049102;28;20045;-92
2022/08/30 16:13:35;;;;;;;4.57;2.35;;;;;;;;;;5040927;28;20017;-91
2022/08/30 16:16:24;;;;;;;3.00;2.05;;;;;;;;;;5041408;28;20029;-92
2022/08/30 16:19:06;;;;;;;3.58;2.25;;;;;;;;;;5060991;28;20078;-92
2022/08/30 16:21:35;;;;;;;3.28;2.30;;;;;;;;;;5055440;28;20374;-92
2022/08/30 16:24:24;;;;;;;2.58;2.38;;;;;;;;;;5050668;28;20032;-91
2022/08/30 16:26:56;;;;;;;3.22;2.20;;;;;;;;;;5052003;28;20531;-92
2022/08/30 16:29:25;;;;;;;2.72;2.20;;;;;;;;;;5047482;28;20593;-91
2022/08/30 16:31:58;;;;;;;3.17;2.45;;;;;;;;;;5037098;28;20020;-92